This is the latest recevied weather packets stored in our database for station/object ON4CDJ-13. If no packets are shown the sender has not sent any weather packets the latest 10 day(s).
| Time | Temp. | Humidity | Pressure | Rain* | Wind** | Luminosity | Snow |
|---|---|---|---|---|---|---|---|
| 1777413326 | 14.44° C | 42% | 1023 hPa | 0 mm | - | 0 W/m² | - |
| 1777407347 | 15.56° C | 39% | 1022.4 hPa | 0 mm | - | 0 W/m² | - |
| 1777403757 | 16.67° C | 39% | 1021.5 hPa | 0 mm | - | 1 W/m² | - |
| 1777401963 | 17.22° C | 37% | 1021.3 hPa | 0 mm | - | 10 W/m² | - |
| 1777399557 | 18.89° C | 33% | 1021 hPa | 0 mm | - | 33 W/m² | - |
| 1777398964 | 18.89° C | 34% | 1020.9 hPa | 0 mm | - | 41 W/m² | - |
| 1777397150 | 19.44° C | 35% | 1020.7 hPa | 0 mm | - | 78 W/m² | - |
| 1777394736 | 20.56° C | 35% | 1020.5 hPa | 0 mm | - | 150 W/m² | - |
| 1777382743 | 20.56° C | 35% | 1021.1 hPa | 0 mm | - | 539 W/m² | - |
| 1777377979 | 19.44° C | 39% | 1021.6 hPa | 0 mm | - | 614 W/m² | - |
| 1777377380 | 19.44° C | 40% | 1021.7 hPa | 0 mm | - | 643 W/m² | - |
| 1777376747 | 18.89° C | 40% | 1021.8 hPa | 0 mm | - | 560 W/m² | - |
| 1777374951 | 17.78° C | 44% | 1021.9 hPa | 0 mm | - | 652 W/m² | - |
| 1777365375 | 12.78° C | 63% | 1022.7 hPa | 0 mm | - | 335 W/m² | - |
| 1777358132 | 10.56° C | 70% | 1022.6 hPa | 0 mm | - | 222 W/m² | - |
| 1777355724 | 9.44° C | 73% | 1022.4 hPa | 0 mm | - | 97 W/m² | - |
| 1777355162 | 9.44° C | 74% | 1022.3 hPa | 0 mm | - | 76 W/m² | - |
| 1777350366 | 8.33° C | 77% | 1021.8 hPa | 0 mm | - | 3 W/m² | - |
| 1777348551 | 8.89° C | 76% | 1021.8 hPa | 0 mm | - | 0 W/m² | - |
| 1777345571 | 9.44° C | 70% | 1021.9 hPa | 0 mm | - | 0 W/m² | - |
| 1777344339 | 10° C | 68% | 1021.8 hPa | 0 mm | - | 0 W/m² | - |
| 1777336574 | 11.67° C | 63% | 1022.3 hPa | 0 mm | - | 0 W/m² | - |
| 1777335999 | 11.67° C | 63% | 1022.3 hPa | 0 mm | - | 0 W/m² | - |
* Rain latest hour (hover to see other rain measurements)
** Current wind speed in m/s (hover to see current wind gust speed)